sensor_id;sensor_type;location;lat;lon;timestamp;P1;durP1;ratioP1;P2;durP2;ratioP2
50695;SDS011;36665;51.786;21.594;2023-02-10T00:08:21;50.00;;;19.70;;
50695;SDS011;36665;51.786;21.594;2023-02-10T00:16:48;40.10;;;16.10;;
50695;SDS011;36665;51.786;21.594;2023-02-10T00:25:13;39.40;;;15.30;;
50695;SDS011;36665;51.786;21.594;2023-02-10T00:33:36;41.10;;;16.20;;
50695;SDS011;36665;51.786;21.594;2023-02-10T00:41:59;41.20;;;17.20;;
50695;SDS011;36665;51.786;21.594;2023-02-10T00:50:23;41.60;;;14.80;;
50695;SDS011;36665;51.786;21.594;2023-02-10T00:58:46;29.20;;;13.10;;
50695;SDS011;36665;51.786;21.594;2023-02-10T01:07:10;30.30;;;12.90;;
50695;SDS011;36665;51.786;21.594;2023-02-10T01:15:33;29.20;;;13.10;;
50695;SDS011;36665;51.786;21.594;2023-02-10T01:23:56;30.90;;;14.00;;
50695;SDS011;36665;51.786;21.594;2023-02-10T01:32:19;34.00;;;13.40;;
50695;SDS011;36665;51.786;21.594;2023-02-10T01:40:42;38.70;;;15.60;;
50695;SDS011;36665;51.786;21.594;2023-02-10T01:49:10;40.90;;;16.00;;
50695;SDS011;36665;51.786;21.594;2023-02-10T01:57:38;29.10;;;12.60;;
50695;SDS011;36665;51.786;21.594;2023-02-10T02:06:05;33.80;;;13.00;;
50695;SDS011;36665;51.786;21.594;2023-02-10T02:40:30;35.30;;;15.30;;
50695;SDS011;36665;51.786;21.594;2023-02-10T03:05:58;159.70;;;54.00;;
50695;SDS011;36665;51.786;21.594;2023-02-10T03:14:22;29.60;;;13.40;;
50695;SDS011;36665;51.786;21.594;2023-02-10T03:22:45;35.60;;;14.80;;
50695;SDS011;36665;51.786;21.594;2023-02-10T03:31:08;32.40;;;14.10;;
50695;SDS011;36665;51.786;21.594;2023-02-10T03:39:32;36.50;;;12.50;;
50695;SDS011;36665;51.786;21.594;2023-02-10T03:47:55;27.90;;;10.60;;
50695;SDS011;36665;51.786;21.594;2023-02-10T03:56:18;27.80;;;12.20;;
50695;SDS011;36665;51.786;21.594;2023-02-10T04:04:41;30.70;;;14.60;;
50695;SDS011;36665;51.786;21.594;2023-02-10T04:13:04;25.70;;;12.00;;
50695;SDS011;36665;51.786;21.594;2023-02-10T04:21:27;50.00;;;20.90;;
50695;SDS011;36665;51.786;21.594;2023-02-10T04:29:50;21.50;;;10.70;;
50695;SDS011;36665;51.786;21.594;2023-02-10T04:38:13;28.90;;;12.90;;
50695;SDS011;36665;51.786;21.594;2023-02-10T04:46:37;30.80;;;14.30;;
50695;SDS011;36665;51.786;21.594;2023-02-10T04:55:00;25.50;;;11.00;;
50695;SDS011;36665;51.786;21.594;2023-02-10T05:03:23;26.40;;;10.90;;
50695;SDS011;36665;51.786;21.594;2023-02-10T05:11:47;21.90;;;8.80;;
50695;SDS011;36665;51.786;21.594;2023-02-10T05:20:10;25.40;;;10.70;;
50695;SDS011;36665;51.786;21.594;2023-02-10T05:28:34;84.80;;;35.80;;
50695;SDS011;36665;51.786;21.594;2023-02-10T05:36:57;33.10;;;14.10;;
50695;SDS011;36665;51.786;21.594;2023-02-10T05:45:20;27.70;;;11.00;;
50695;SDS011;36665;51.786;21.594;2023-02-10T05:53:43;24.80;;;9.90;;
50695;SDS011;36665;51.786;21.594;2023-02-10T06:02:06;29.40;;;10.80;;
50695;SDS011;36665;51.786;21.594;2023-02-10T06:10:29;44.90;;;17.80;;
50695;SDS011;36665;51.786;21.594;2023-02-10T06:18:52;38.90;;;15.60;;
50695;SDS011;36665;51.786;21.594;2023-02-10T06:27:16;28.60;;;10.90;;
50695;SDS011;36665;51.786;21.594;2023-02-10T06:35:39;27.60;;;12.40;;
50695;SDS011;36665;51.786;21.594;2023-02-10T06:44:02;28.20;;;13.60;;
50695;SDS011;36665;51.786;21.594;2023-02-10T06:52:25;35.70;;;12.80;;
50695;SDS011;36665;51.786;21.594;2023-02-10T07:00:50;28.00;;;12.40;;
50695;SDS011;36665;51.786;21.594;2023-02-10T07:09:13;37.60;;;16.40;;
50695;SDS011;36665;51.786;21.594;2023-02-10T07:17:36;28.30;;;14.30;;
50695;SDS011;36665;51.786;21.594;2023-02-10T07:25:59;40.30;;;17.30;;
50695;SDS011;36665;51.786;21.594;2023-02-10T07:34:22;35.10;;;15.60;;
50695;SDS011;36665;51.786;21.594;2023-02-10T07:42:45;25.70;;;12.60;;
50695;SDS011;36665;51.786;21.594;2023-02-10T07:51:20;39.70;;;18.60;;
50695;SDS011;36665;51.786;21.594;2023-02-10T07:59:43;35.10;;;16.90;;
50695;SDS011;36665;51.786;21.594;2023-02-10T08:08:06;35.20;;;15.40;;
50695;SDS011;36665;51.786;21.594;2023-02-10T08:16:29;33.20;;;15.00;;
50695;SDS011;36665;51.786;21.594;2023-02-10T08:24:52;48.50;;;16.50;;
50695;SDS011;36665;51.786;21.594;2023-02-10T08:33:15;34.00;;;14.40;;
50695;SDS011;36665;51.786;21.594;2023-02-10T08:41:38;43.80;;;20.00;;
50695;SDS011;36665;51.786;21.594;2023-02-10T08:50:02;35.10;;;16.30;;
50695;SDS011;36665;51.786;21.594;2023-02-10T08:58:26;37.10;;;16.00;;
50695;SDS011;36665;51.786;21.594;2023-02-10T09:06:49;41.30;;;18.60;;
50695;SDS011;36665;51.786;21.594;2023-02-10T09:15:13;36.20;;;18.30;;
50695;SDS011;36665;51.786;21.594;2023-02-10T09:23:37;43.40;;;19.80;;
50695;SDS011;36665;51.786;21.594;2023-02-10T09:32:00;44.00;;;19.00;;
50695;SDS011;36665;51.786;21.594;2023-02-10T09:40:25;42.00;;;18.80;;
50695;SDS011;36665;51.786;21.594;2023-02-10T09:57:37;33.10;;;17.60;;
50695;SDS011;36665;51.786;21.594;2023-02-10T10:06:22;31.90;;;15.40;;
50695;SDS011;36665;51.786;21.594;2023-02-10T10:14:49;35.20;;;17.10;;
50695;SDS011;36665;51.786;21.594;2023-02-10T10:31:55;40.60;;;17.30;;
50695;SDS011;36665;51.786;21.594;2023-02-10T10:40:30;33.70;;;16.90;;
50695;SDS011;36665;51.786;21.594;2023-02-10T10:48:55;38.00;;;17.40;;
50695;SDS011;36665;51.786;21.594;2023-02-10T10:57:19;38.20;;;18.00;;
50695;SDS011;36665;51.786;21.594;2023-02-10T11:05:43;44.80;;;18.10;;
50695;SDS011;36665;51.786;21.594;2023-02-10T11:14:23;38.70;;;16.50;;
50695;SDS011;36665;51.786;21.594;2023-02-10T11:23:23;32.60;;;17.40;;
50695;SDS011;36665;51.786;21.594;2023-02-10T11:31:39;34.00;;;15.60;;
50695;SDS011;36665;51.786;21.594;2023-02-10T11:40:04;37.90;;;18.00;;
50695;SDS011;36665;51.786;21.594;2023-02-10T11:48:39;34.50;;;17.30;;
50695;SDS011;36665;51.786;21.594;2023-02-10T11:57:12;35.10;;;13.40;;
50695;SDS011;36665;51.786;21.594;2023-02-10T12:06:05;38.70;;;16.30;;
50695;SDS011;36665;51.786;21.594;2023-02-10T12:14:57;29.00;;;14.30;;
50695;SDS011;36665;51.786;21.594;2023-02-10T12:23:44;38.30;;;16.80;;
50695;SDS011;36665;51.786;21.594;2023-02-10T12:58:46;41.90;;;19.10;;
50695;SDS011;36665;51.786;21.594;2023-02-10T13:16:05;81.70;;;33.20;;
50695;SDS011;36665;51.786;21.594;2023-02-10T13:24:36;104.50;;;47.80;;
50695;SDS011;36665;51.786;21.594;2023-02-10T13:50:50;55.80;;;26.30;;
50695;SDS011;36665;51.786;21.594;2023-02-10T14:07:40;43.50;;;22.70;;
50695;SDS011;36665;51.786;21.594;2023-02-10T14:16:26;44.10;;;20.90;;
50695;SDS011;36665;51.786;21.594;2023-02-10T14:25:22;75.40;;;32.00;;
50695;SDS011;36665;51.786;21.594;2023-02-10T14:33:55;54.10;;;19.40;;
50695;SDS011;36665;51.786;21.594;2023-02-10T14:42:20;43.20;;;20.40;;
50695;SDS011;36665;51.786;21.594;2023-02-10T14:50:44;60.30;;;25.70;;
50695;SDS011;36665;51.786;21.594;2023-02-10T14:59:18;42.80;;;18.20;;
50695;SDS011;36665;51.786;21.594;2023-02-10T15:07:42;55.30;;;23.40;;
50695;SDS011;36665;51.786;21.594;2023-02-10T15:16:10;57.30;;;25.10;;
50695;SDS011;36665;51.786;21.594;2023-02-10T15:24:37;58.70;;;19.80;;
50695;SDS011;36665;51.786;21.594;2023-02-10T15:33:03;56.50;;;26.00;;
50695;SDS011;36665;51.786;21.594;2023-02-10T15:41:42;183.00;;;67.70;;
50695;SDS011;36665;51.786;21.594;2023-02-10T15:50:20;285.40;;;67.40;;
50695;SDS011;36665;51.786;21.594;2023-02-10T15:58:43;355.50;;;94.10;;
50695;SDS011;36665;51.786;21.594;2023-02-10T16:07:06;168.70;;;51.50;;
50695;SDS011;36665;51.786;21.594;2023-02-10T16:15:34;172.80;;;57.80;;
50695;SDS011;36665;51.786;21.594;2023-02-10T16:23:57;99.30;;;38.10;;
50695;SDS011;36665;51.786;21.594;2023-02-10T16:32:20;111.40;;;42.50;;
50695;SDS011;36665;51.786;21.594;2023-02-10T16:40:43;68.50;;;30.20;;
50695;SDS011;36665;51.786;21.594;2023-02-10T16:49:06;53.70;;;23.40;;
50695;SDS011;36665;51.786;21.594;2023-02-10T16:57:31;53.30;;;21.20;;
50695;SDS011;36665;51.786;21.594;2023-02-10T17:14:48;58.10;;;23.60;;
50695;SDS011;36665;51.786;21.594;2023-02-10T17:23:11;41.50;;;20.40;;
50695;SDS011;36665;51.786;21.594;2023-02-10T17:31:36;72.90;;;28.10;;
50695;SDS011;36665;51.786;21.594;2023-02-10T17:40:00;67.90;;;25.20;;
50695;SDS011;36665;51.786;21.594;2023-02-10T17:57:05;51.00;;;21.70;;
50695;SDS011;36665;51.786;21.594;2023-02-10T18:05:29;79.00;;;26.50;;
50695;SDS011;36665;51.786;21.594;2023-02-10T18:13:52;61.20;;;24.70;;
50695;SDS011;36665;51.786;21.594;2023-02-10T18:22:15;67.00;;;26.80;;
50695;SDS011;36665;51.786;21.594;2023-02-10T18:30:38;56.00;;;21.50;;
50695;SDS011;36665;51.786;21.594;2023-02-10T18:39:02;59.20;;;23.00;;
50695;SDS011;36665;51.786;21.594;2023-02-10T18:47:26;71.10;;;27.90;;
50695;SDS011;36665;51.786;21.594;2023-02-10T18:55:51;76.10;;;28.80;;
50695;SDS011;36665;51.786;21.594;2023-02-10T19:04:14;51.10;;;20.00;;
50695;SDS011;36665;51.786;21.594;2023-02-10T19:12:38;71.40;;;27.70;;
50695;SDS011;36665;51.786;21.594;2023-02-10T19:21:01;102.70;;;32.00;;
50695;SDS011;36665;51.786;21.594;2023-02-10T19:29:25;431.30;;;129.50;;
50695;SDS011;36665;51.786;21.594;2023-02-10T19:37:48;233.40;;;66.70;;
50695;SDS011;36665;51.786;21.594;2023-02-10T19:46:11;378.90;;;100.70;;
50695;SDS011;36665;51.786;21.594;2023-02-10T19:54:35;210.60;;;62.70;;
50695;SDS011;36665;51.786;21.594;2023-02-10T20:02:58;450.90;;;128.80;;
50695;SDS011;36665;51.786;21.594;2023-02-10T20:11:23;163.50;;;44.90;;
50695;SDS011;36665;51.786;21.594;2023-02-10T20:19:46;118.50;;;37.10;;
50695;SDS011;36665;51.786;21.594;2023-02-10T20:28:09;87.30;;;35.70;;
50695;SDS011;36665;51.786;21.594;2023-02-10T20:36:34;109.90;;;35.80;;
50695;SDS011;36665;51.786;21.594;2023-02-10T20:44:57;77.80;;;29.30;;
50695;SDS011;36665;51.786;21.594;2023-02-10T20:53:30;107.20;;;41.70;;
50695;SDS011;36665;51.786;21.594;2023-02-10T21:01:54;102.10;;;36.10;;
50695;SDS011;36665;51.786;21.594;2023-02-10T21:10:17;80.80;;;33.80;;
50695;SDS011;36665;51.786;21.594;2023-02-10T21:18:41;73.80;;;32.50;;
50695;SDS011;36665;51.786;21.594;2023-02-10T21:27:05;49.20;;;20.90;;
50695;SDS011;36665;51.786;21.594;2023-02-10T21:35:28;62.60;;;26.20;;
50695;SDS011;36665;51.786;21.594;2023-02-10T21:43:51;68.30;;;28.10;;
50695;SDS011;36665;51.786;21.594;2023-02-10T21:52:16;50.90;;;22.00;;
50695;SDS011;36665;51.786;21.594;2023-02-10T22:00:39;74.30;;;26.30;;
50695;SDS011;36665;51.786;21.594;2023-02-10T22:09:03;70.50;;;26.40;;
50695;SDS011;36665;51.786;21.594;2023-02-10T22:17:28;64.10;;;26.60;;
50695;SDS011;36665;51.786;21.594;2023-02-10T22:25:51;72.60;;;25.40;;
50695;SDS011;36665;51.786;21.594;2023-02-10T22:34:18;61.50;;;25.00;;
50695;SDS011;36665;51.786;21.594;2023-02-10T22:42:42;57.40;;;25.20;;
50695;SDS011;36665;51.786;21.594;2023-02-10T22:51:24;52.20;;;21.50;;
50695;SDS011;36665;51.786;21.594;2023-02-10T22:59:49;64.30;;;23.70;;
50695;SDS011;36665;51.786;21.594;2023-02-10T23:08:12;57.20;;;23.10;;
50695;SDS011;36665;51.786;21.594;2023-02-10T23:16:35;59.10;;;23.00;;
50695;SDS011;36665;51.786;21.594;2023-02-10T23:24:58;59.70;;;21.70;;
50695;SDS011;36665;51.786;21.594;2023-02-10T23:33:22;65.20;;;23.10;;
50695;SDS011;36665;51.786;21.594;2023-02-10T23:41:45;54.30;;;22.50;;
50695;SDS011;36665;51.786;21.594;2023-02-10T23:50:09;50.20;;;19.80;;
50695;SDS011;36665;51.786;21.594;2023-02-10T23:58:32;65.70;;;23.00;;
